Terminal Aerodrome Forecast
Issued by NWS

Home | Current Version | Previous Version | Text Only | Print | Product List | Glossary On
Versions: 1 2 3 4 5 6 7 8 9 10 11 12 13 14 15 16 17 18
000
FTUS43 KOAX 291345 AAA
TAFCDR
TAF AMD
KCDR 291345Z 2914/3012 04013KT 4SM -SN BR OVC015
     FM291600 04012KT 1/2SM SN OVC010
     FM300100 04005KT 2SM -SN BR OVC015=

USA.gov is the U.S. government's official web portal to all federal, state and local government web resources and services.